IFR Flight & SIM Center™

402 Wright Bros. Dr. #202 Georgetown, Texas 78628

Select Page

Overview of Courses

IFR Flight & SIM Center™
Overview of Courses - IFR Flight & SIM Center™

Overview of Courses

IFR Flight & SIM Center™ provides flight instruction for all certificates and ratings, from Student Pilot through Airline Transport Pilot (ATP).

 

Certificates & Ratings

• Private Pilot
• Instrument Pilot
• Commercial Pilot
• Airline Transport Pilot (ATP)

• Multi-Engine Rating
• CFI –  Instructor
• CFII – Instrument Instructor
• MEI –  Multi-Engine Instructor

Currency Courses

• Flight Reviews 
• Instrument Proficiency Checks (IPC)
• IFR Refresher Courses

Overview of Courses - IFR Flight Training School™ & SIM Center

Special Courses

• New Course – The Basics
• IFR Long Course
• IFR Currency/Proficiency
• ELITE™ IFR Trip Rehearsals
• IFR Workshops
• ELITE™ Simulator Training Overview

• ELITE Sim IFR Procedures Course
• Aviat Husky A1 Tailwheel Training
• Youth Aviation Program
• Home School Program

We also Offer

• Pilot Services
• Aircraft Management
• Aviation Consulting

• Aircraft Charter Brokerage
• Pilot Supplies

KGTU METAR
Georgetown, TX

KGTU 241350Z 21008KT 8SM BKN016 26/23 A3001

 

 

 

Look No Further. Get Started Today!

Subscribe To Our Newsletter

Join our mailing list to receive the latest news and updates from our team at IFR Flight & SIM Center™.

You can unsubscribe at any time.

You have Successfully Subscribed!